Mabaruma Airport


Codes: SYMB/USI
Name: Mabaruma Airport
City: Mabaruma
Country: Guyana
Elevation: 45 ft.

Photos at Mabaruma Airport


   Photos courtesy of SpottingLog. You can add your own sightings and photos by signing up for a free trial today.



No photos found.

Weather at Mabaruma Airport


Time (UTC)DescriptionTempratureWindCloud coverageVisibilityPressureHumidity
16-Jun-2024 12:00Overcast Clouds24°C2 mph, SE100%10000m1013hPa97%
16-Jun-2024 15:00Light Rain29°C4 mph, E99%10000m1013hPa69%
16-Jun-2024 18:00Light Rain28°C4 mph, NE100%8136m1012hPa79%
16-Jun-2024 21:00Light Rain28°C7 mph, NE92%10000m1011hPa76%
17-Jun-2024 00:00Light Rain23°C2 mph, NE86%10000m1013hPa100%
17-Jun-2024 03:00Overcast Clouds23°C2 mph, E96%10000m1013hPa100%
17-Jun-2024 06:00Light Rain23°C0 mph, SE97%10000m1011hPa101%
17-Jun-2024 09:00Light Rain22°C2 mph, S99%7691m1012hPa101%
17-Jun-2024 12:00Light Rain25°C2 mph, SE97%7358m1013hPa94%
17-Jun-2024 15:00Moderate Rain28°C2 mph, E80%10000m1012hPa80%
17-Jun-2024 18:00Moderate Rain30°C4 mph, E73%10000m1010hPa67%
17-Jun-2024 21:00Light Rain27°C4 mph, NE97%10000m1009hPa82%
18-Jun-2024 00:00Light Rain24°C2 mph, NE99%10000m1011hPa93%
18-Jun-2024 03:00Overcast Clouds24°C2 mph, E100%10000m1012hPa96%
18-Jun-2024 06:00Light Rain23°C0 mph, SE93%10000m1011hPa99%
18-Jun-2024 09:00Light Rain23°C0 mph, E97%10000m1011hPa101%
18-Jun-2024 12:00Light Rain25°C2 mph, SE99%10000m1012hPa97%
18-Jun-2024 15:00Light Rain31°C4 mph, E100%10000m1012hPa60%
18-Jun-2024 18:00Light Rain31°C9 mph, NE100%10000m1009hPa55%
18-Jun-2024 21:00Overcast Clouds28°C7 mph, NE96%10000m1009hPa74%
19-Jun-2024 00:00Light Rain25°C4 mph, NE75%10000m1011hPa91%
19-Jun-2024 03:00Scattered Clouds24°C2 mph, E34%10000m1012hPa95%
19-Jun-2024 06:00Broken Clouds23°C2 mph, E57%10000m1010hPa99%
19-Jun-2024 09:00Scattered Clouds23°C0 mph, E43%10000m1011hPa101%
19-Jun-2024 12:00Light Rain26°C2 mph, E60%10000m1013hPa93%
19-Jun-2024 15:00Light Rain28°C4 mph, E53%6438m1013hPa85%
19-Jun-2024 18:00Moderate Rain27°C4 mph, NE80%10000m1010hPa90%
19-Jun-2024 21:00Light Rain27°C7 mph, NE100%10000m1009hPa80%
20-Jun-2024 00:00Light Rain23°C2 mph, NE100%10000m1011hPa99%
20-Jun-2024 03:00Light Rain23°C2 mph, E92%10000m1012hPa100%
20-Jun-2024 06:00Light Rain23°C2 mph, E89%10000m1010hPa100%
20-Jun-2024 09:00Overcast Clouds23°C2 mph, E97%10000m1011hPa101%
20-Jun-2024 12:00Light Rain27°C2 mph, E87%10000m1012hPa87%
20-Jun-2024 15:00Light Rain31°C4 mph, E63%7471m1012hPa61%
20-Jun-2024 18:00Light Rain31°C7 mph, NE76%10000m1010hPa59%
20-Jun-2024 21:00Light Rain28°C4 mph, NE100%10000m1010hPa74%
21-Jun-2024 00:00Overcast Clouds24°C2 mph, E100%10000m1012hPa91%
21-Jun-2024 03:00Light Rain23°C2 mph, E100%10000m1013hPa99%
21-Jun-2024 06:00Light Rain23°C0 mph, SE100%10000m1011hPa101%
21-Jun-2024 09:00Light Rain23°C0 mph, SE100%5705m1011hPa101%